createdAt,value
2023-03-02T00:00:25.802Z,2.20
2023-03-02T00:03:18.253Z,2.20
2023-03-02T00:06:08.543Z,2.10
2023-03-02T00:09:00.539Z,2.10
2023-03-02T00:11:52.796Z,2.10
2023-03-02T00:14:42.275Z,2.10
2023-03-02T00:17:31.635Z,2.00
2023-03-02T00:20:20.995Z,2.00
2023-03-02T00:23:10.319Z,2.00
2023-03-02T00:25:59.606Z,2.00
2023-03-02T00:28:50.670Z,1.90
2023-03-02T00:31:40.346Z,2.00
2023-03-02T00:34:32.340Z,1.90
2023-03-02T00:37:22.037Z,1.90
2023-03-02T00:40:13.051Z,1.90
2023-03-02T00:43:02.383Z,1.90
2023-03-02T00:45:53.120Z,1.90
2023-03-02T00:48:43.108Z,1.90
2023-03-02T00:51:32.354Z,1.90
2023-03-02T00:54:21.747Z,1.90
2023-03-02T00:57:11.040Z,1.90
2023-03-02T01:00:00.562Z,1.90
2023-03-02T01:02:57.675Z,1.90
2023-03-02T01:05:47.567Z,1.90
2023-03-02T01:08:37.841Z,1.90
2023-03-02T01:11:27.180Z,1.90
2023-03-02T01:14:16.814Z,1.90
2023-03-02T01:17:06.724Z,1.90
2023-03-02T01:19:58.885Z,1.80
2023-03-02T01:22:48.508Z,1.80
2023-03-02T01:25:39.011Z,1.70
2023-03-02T01:28:28.554Z,1.70
2023-03-02T01:31:17.895Z,1.60
2023-03-02T01:34:07.779Z,1.60
2023-03-02T01:36:58.461Z,1.50
2023-03-02T01:39:47.892Z,1.50
2023-03-02T01:42:41.077Z,1.40
2023-03-02T01:45:54.258Z,1.40
2023-03-02T01:48:55.280Z,1.30
2023-03-02T01:51:53.114Z,1.30
2023-03-02T01:54:44.940Z,1.30
2023-03-02T01:57:43.767Z,1.30
2023-03-02T02:00:38.641Z,1.20
2023-03-02T02:03:31.036Z,1.20
2023-03-02T02:06:26.354Z,1.20
2023-03-02T02:09:19.524Z,1.30
2023-03-02T02:12:15.138Z,1.30
2023-03-02T02:15:06.072Z,1.30
2023-03-02T02:17:55.647Z,1.20
2023-03-02T02:20:46.845Z,1.20
2023-03-02T02:23:42.720Z,1.20
2023-03-02T02:26:38.507Z,1.20
2023-03-02T02:29:33.095Z,1.30
2023-03-02T02:32:27.493Z,1.20
2023-03-02T02:35:21.404Z,1.20
2023-03-02T02:38:13.634Z,1.10
2023-03-02T02:41:05.878Z,1.10
2023-03-02T02:43:58.480Z,1.10
2023-03-02T02:46:48.690Z,1.00
2023-03-02T02:49:40.448Z,1.00
2023-03-02T02:52:30.913Z,1.00
2023-03-02T02:55:24.351Z,0.90
2023-03-02T02:58:32.480Z,0.90
2023-03-02T03:01:26.684Z,0.80
2023-03-02T03:04:21.720Z,0.80
2023-03-02T03:07:20.299Z,0.80
2023-03-02T03:10:16.592Z,0.70
2023-03-02T03:13:06.465Z,0.70
2023-03-02T03:15:55.836Z,0.70
2023-03-02T03:18:50.204Z,0.60
2023-03-02T03:21:39.895Z,0.60
2023-03-02T03:24:32.926Z,0.60
2023-03-02T03:27:22.455Z,0.60
2023-03-02T03:30:14.989Z,0.60
2023-03-02T03:33:04.921Z,0.60
2023-03-02T03:35:55.981Z,0.60
2023-03-02T03:38:45.785Z,0.50
2023-03-02T03:41:35.163Z,0.60
2023-03-02T03:44:24.701Z,0.50
2023-03-02T03:47:14.161Z,0.50
2023-03-02T03:50:04.027Z,0.50
2023-03-02T03:52:55.295Z,0.50
2023-03-02T03:55:50.580Z,0.40
2023-03-02T03:58:40.345Z,0.40
2023-03-02T04:01:35.035Z,0.40
2023-03-02T04:04:28.645Z,0.30
2023-03-02T04:07:18.623Z,0.30
2023-03-02T04:10:12.650Z,0.20
2023-03-02T04:13:04.355Z,0.20
2023-03-02T04:15:53.824Z,0.20
2023-03-02T04:18:44.256Z,0.10
2023-03-02T04:21:33.672Z,0.10
2023-03-02T04:24:24.594Z,0.10
2023-03-02T04:27:19.595Z,0.10
2023-03-02T04:30:11.039Z,0.10
2023-03-02T04:33:01.473Z,0.10
2023-03-02T04:35:51.892Z,0.10
2023-03-02T04:38:41.465Z,0.10
2023-03-02T04:41:30.823Z,0.10
2023-03-02T04:44:22.419Z,0.10
2023-03-02T04:47:12.471Z,0.10
2023-03-02T04:50:01.881Z,0.00
2023-03-02T04:52:51.334Z,0.00
2023-03-02T04:55:41.521Z,0.00
2023-03-02T04:58:30.958Z,-0.10
2023-03-02T05:01:22.109Z,0.00
2023-03-02T05:04:11.807Z,0.00
2023-03-02T05:07:01.158Z,-0.10
2023-03-02T05:09:50.517Z,-0.10
2023-03-02T05:12:54.865Z,-0.10
2023-03-02T05:15:44.423Z,0.00
2023-03-02T05:18:35.112Z,0.00
2023-03-02T05:21:24.759Z,0.00
2023-03-02T05:24:14.748Z,0.00
2023-03-02T05:27:04.032Z,0.00
2023-03-02T05:29:53.367Z,0.00
2023-03-02T05:32:42.991Z,0.00
2023-03-02T05:35:33.755Z,0.00
2023-03-02T05:38:23.248Z,0.00
2023-03-02T05:41:12.677Z,0.00
2023-03-02T05:44:02.387Z,0.00
2023-03-02T05:46:51.788Z,-0.10
2023-03-02T05:49:41.133Z,0.00
2023-03-02T05:52:31.867Z,-0.10
2023-03-02T05:55:21.736Z,-0.10
2023-03-02T05:58:15.547Z,-0.10
2023-03-02T06:01:13.142Z,-0.10
2023-03-02T06:04:04.459Z,-0.10
2023-03-02T06:06:53.848Z,-0.10
2023-03-02T06:09:44.525Z,-0.20
2023-03-02T06:12:34.293Z,-0.20
2023-03-02T06:15:24.138Z,-0.20
2023-03-02T06:18:13.816Z,-0.20
2023-03-02T06:21:03.746Z,-0.20
2023-03-02T06:23:53.030Z,-0.10
2023-03-02T06:26:44.060Z,0.20
2023-03-02T06:29:33.537Z,0.50
2023-03-02T06:32:22.971Z,1.00
2023-03-02T06:35:13.217Z,1.50
2023-03-02T06:38:02.553Z,2.00
2023-03-02T06:40:51.895Z,2.50
2023-03-02T06:43:42.676Z,3.00
2023-03-02T06:46:32.242Z,3.30
2023-03-02T06:49:21.713Z,3.60
2023-03-02T06:52:13.525Z,3.80
2023-03-02T06:55:03.405Z,3.90
2023-03-02T06:57:52.944Z,4.00
2023-03-02T07:00:43.758Z,4.00
2023-03-02T07:03:33.200Z,4.00
2023-03-02T07:06:22.559Z,4.00
2023-03-02T07:09:11.979Z,4.00
2023-03-02T07:12:01.616Z,4.20
2023-03-02T07:14:50.989Z,4.30
2023-03-02T07:17:43.801Z,4.60
2023-03-02T07:20:34.180Z,4.90
2023-03-02T07:23:23.722Z,5.40
2023-03-02T07:26:13.102Z,5.90
2023-03-02T07:29:02.654Z,6.50
2023-03-02T07:31:57.036Z,7.10
2023-03-02T07:34:47.842Z,7.80
2023-03-02T07:37:37.183Z,8.40
2023-03-02T07:40:26.478Z,9.10
2023-03-02T07:43:16.000Z,9.80
2023-03-02T07:46:05.859Z,10.40
2023-03-02T07:48:55.246Z,11.00
2023-03-02T07:51:45.995Z,11.60
2023-03-02T07:54:35.395Z,12.10
2023-03-02T07:57:24.654Z,12.80
2023-03-02T08:00:15.691Z,13.40
2023-03-02T08:03:05.160Z,14.10
2023-03-02T08:05:54.472Z,14.80
2023-03-02T08:08:45.149Z,15.50
2023-03-02T08:11:34.730Z,16.30
2023-03-02T08:14:24.427Z,16.90
2023-03-02T08:17:13.793Z,17.50
2023-03-02T08:20:03.949Z,18.10
2023-03-02T08:22:54.261Z,18.70
2023-03-02T08:25:45.534Z,19.20
2023-03-02T08:28:35.572Z,19.70
2023-03-02T08:31:24.943Z,20.20
2023-03-02T08:34:14.352Z,20.70
2023-03-02T08:37:03.711Z,21.10
2023-03-02T08:39:53.156Z,21.60
2023-03-02T08:42:43.858Z,21.90
2023-03-02T08:45:33.282Z,22.30
2023-03-02T08:48:23.155Z,22.60
2023-03-02T08:51:14.684Z,22.90
2023-03-02T08:54:04.038Z,23.20
2023-03-02T08:56:53.439Z,23.50
2023-03-02T08:59:44.221Z,23.70
2023-03-02T09:02:33.583Z,23.80
2023-03-02T09:05:22.874Z,23.80
2023-03-02T09:08:13.409Z,23.70
2023-03-02T09:11:02.758Z,23.70
2023-03-02T09:13:52.245Z,23.60
2023-03-02T09:16:43.055Z,23.50
2023-03-02T09:19:37.621Z,23.40
2023-03-02T09:22:27.346Z,23.30
2023-03-02T09:25:17.029Z,23.20
2023-03-02T09:28:06.362Z,23.30
2023-03-02T09:30:59.398Z,23.30
2023-03-02T09:33:50.130Z,23.50
2023-03-02T09:36:39.428Z,23.70
2023-03-02T09:39:28.793Z,23.80
2023-03-02T09:42:43.453Z,23.80
2023-03-02T09:45:55.515Z,24.00
2023-03-02T09:49:03.132Z,24.30
2023-03-02T09:52:12.699Z,24.50
2023-03-02T09:55:13.682Z,24.70
2023-03-02T09:58:06.624Z,24.90
2023-03-02T10:00:56.103Z,25.10
2023-03-02T10:03:54.056Z,25.30
2023-03-02T10:06:44.923Z,25.30
2023-03-02T10:09:34.354Z,25.50
2023-03-02T10:12:46.244Z,25.50
2023-03-02T10:15:42.289Z,25.60
2023-03-02T10:18:38.400Z,25.70
2023-03-02T10:21:34.159Z,25.80
2023-03-02T10:24:33.148Z,25.90
2023-03-02T10:27:28.308Z,26.10
2023-03-02T10:30:27.792Z,26.30
2023-03-02T10:33:21.199Z,26.50
2023-03-02T10:36:23.936Z,26.50
2023-03-02T10:39:16.756Z,26.50
2023-03-02T10:42:13.802Z,26.40
2023-03-02T10:45:28.664Z,26.40
2023-03-02T10:48:18.037Z,26.30
2023-03-02T10:51:07.415Z,26.20
2023-03-02T10:54:08.189Z,26.00
2023-03-02T10:57:01.969Z,26.00
2023-03-02T10:59:53.859Z,25.90
2023-03-02T11:02:52.383Z,25.90
2023-03-02T11:05:44.434Z,26.00
2023-03-02T11:08:33.853Z,26.00
2023-03-02T11:11:26.168Z,26.00
2023-03-02T11:14:18.732Z,26.00
2023-03-02T11:17:32.234Z,25.90
2023-03-02T11:20:26.383Z,25.90
2023-03-02T11:23:22.672Z,25.70
2023-03-02T11:26:22.182Z,25.60
2023-03-02T11:29:22.654Z,25.40
2023-03-02T11:32:19.325Z,25.30
2023-03-02T11:35:16.450Z,25.30
2023-03-02T11:38:17.403Z,25.30
2023-03-02T11:41:15.594Z,25.20
2023-03-02T11:44:16.110Z,25.10
2023-03-02T11:47:05.756Z,24.90
2023-03-02T11:49:58.737Z,24.50
2023-03-02T11:52:54.404Z,24.00
2023-03-02T11:55:48.620Z,23.50
2023-03-02T11:58:39.734Z,23.00
2023-03-02T12:01:30.092Z,22.40
2023-03-02T12:04:32.302Z,21.80
2023-03-02T12:07:27.260Z,21.00
2023-03-02T12:10:33.802Z,20.20
2023-03-02T12:13:28.400Z,19.40
2023-03-02T12:16:22.810Z,18.60
2023-03-02T12:19:28.018Z,17.90
2023-03-02T12:22:29.129Z,17.30
2023-03-02T12:25:39.879Z,16.70
2023-03-02T12:28:34.259Z,16.20
2023-03-02T12:31:23.681Z,15.80
2023-03-02T12:34:34.968Z,15.50
2023-03-02T12:37:28.054Z,15.20
2023-03-02T12:40:41.552Z,14.90
2023-03-02T12:43:33.663Z,14.60
2023-03-02T12:46:29.639Z,14.30
2023-03-02T12:49:45.648Z,14.10
2023-03-02T12:52:37.450Z,13.90
2023-03-02T12:55:27.408Z,13.70
2023-03-02T12:58:22.518Z,13.50
2023-03-02T13:01:25.567Z,13.40
2023-03-02T13:04:24.236Z,13.20
2023-03-02T13:07:19.656Z,13.10
2023-03-02T13:10:41.818Z,13.00
2023-03-02T13:13:40.039Z,12.90
2023-03-02T13:16:33.018Z,12.70
2023-03-02T13:19:23.415Z,12.60
2023-03-02T13:22:14.914Z,12.50
2023-03-02T13:25:08.253Z,12.40
2023-03-02T13:28:00.674Z,12.30
2023-03-02T13:30:58.762Z,12.20
2023-03-02T13:33:52.436Z,12.20
2023-03-02T13:36:42.460Z,12.10
2023-03-02T13:39:33.227Z,12.10
2023-03-02T13:42:29.997Z,12.00
2023-03-02T13:45:31.214Z,12.00
2023-03-02T13:48:22.356Z,11.90
2023-03-02T13:51:18.961Z,11.90
2023-03-02T13:54:23.471Z,11.80
2023-03-02T13:57:18.201Z,11.80
2023-03-02T14:00:13.590Z,11.70
2023-03-02T14:03:03.579Z,11.70
2023-03-02T14:05:55.308Z,11.60
2023-03-02T14:08:44.645Z,11.60
2023-03-02T14:11:37.942Z,11.60
2023-03-02T14:14:30.405Z,11.50
2023-03-02T14:17:24.822Z,11.50
2023-03-02T14:20:18.211Z,11.50
2023-03-02T14:23:10.295Z,11.40
2023-03-02T14:25:59.857Z,11.40
2023-03-02T14:28:53.594Z,11.30
2023-03-02T14:31:49.674Z,11.30
2023-03-02T14:34:39.439Z,11.30
2023-03-02T14:37:30.277Z,11.20
2023-03-02T14:40:25.753Z,11.20
2023-03-02T14:43:15.106Z,11.20
2023-03-02T14:46:04.530Z,11.10
2023-03-02T14:48:53.821Z,11.10
2023-03-02T14:51:45.868Z,11.10
2023-03-02T14:54:42.356Z,11.00
2023-03-02T14:57:38.206Z,11.00
2023-03-02T15:00:28.311Z,10.90
2023-03-02T15:03:22.778Z,10.80
2023-03-02T15:06:26.909Z,10.80
2023-03-02T15:09:16.218Z,10.80
2023-03-02T15:12:06.172Z,10.70
2023-03-02T15:14:56.901Z,10.70
2023-03-02T15:17:46.254Z,10.60
2023-03-02T15:20:35.832Z,10.60
2023-03-02T15:23:25.136Z,10.50
2023-03-02T15:26:15.371Z,10.50
2023-03-02T15:29:04.722Z,10.50
2023-03-02T15:31:55.775Z,10.40
2023-03-02T15:34:45.421Z,10.40
2023-03-02T15:37:34.756Z,10.40
2023-03-02T15:40:24.128Z,10.30
2023-03-02T15:43:13.553Z,10.30
2023-03-02T15:46:03.247Z,10.30
2023-03-02T15:48:54.326Z,10.20
2023-03-02T15:51:43.734Z,10.20
2023-03-02T15:54:33.545Z,10.10
2023-03-02T15:57:22.971Z,10.10
2023-03-02T16:00:14.276Z,10.00
2023-03-02T16:03:03.636Z,10.00
2023-03-02T16:05:58.248Z,9.90
2023-03-02T16:08:47.529Z,9.90
2023-03-02T16:11:37.258Z,9.90
2023-03-02T16:14:26.769Z,9.80
2023-03-02T16:17:17.825Z,9.80
2023-03-02T16:20:08.275Z,9.70
2023-03-02T16:23:01.368Z,9.70
2023-03-02T16:25:50.819Z,9.60
2023-03-02T16:28:40.273Z,9.50
2023-03-02T16:31:33.082Z,9.50
2023-03-02T16:34:22.486Z,9.40
2023-03-02T16:37:11.862Z,9.30
2023-03-02T16:40:02.577Z,9.30
2023-03-02T16:42:52.160Z,9.20
2023-03-02T16:45:41.576Z,9.10
2023-03-02T16:48:30.924Z,9.00
2023-03-02T16:51:21.325Z,8.90
2023-03-02T16:54:11.818Z,8.80
2023-03-02T16:57:02.567Z,8.80
2023-03-02T16:59:52.149Z,8.70
2023-03-02T17:02:41.549Z,8.60
2023-03-02T17:05:30.935Z,8.50
2023-03-02T17:08:20.350Z,8.50
2023-03-02T17:11:09.920Z,8.40
2023-03-02T17:14:00.613Z,8.30
2023-03-02T17:16:49.984Z,8.20
2023-03-02T17:19:39.487Z,8.20
2023-03-02T17:22:28.909Z,8.10
2023-03-02T17:25:19.091Z,8.10
2023-03-02T17:28:08.551Z,8.00
2023-03-02T17:31:00.194Z,7.90
2023-03-02T17:33:49.585Z,7.90
2023-03-02T17:36:39.131Z,7.80
2023-03-02T17:39:28.810Z,7.80
2023-03-02T17:42:18.171Z,7.70
2023-03-02T17:45:08.968Z,7.70
2023-03-02T17:48:00.329Z,7.60
2023-03-02T17:50:49.645Z,7.60
2023-03-02T17:53:39.934Z,7.50
2023-03-02T17:56:30.240Z,7.50
2023-03-02T17:59:19.749Z,7.50
2023-03-02T18:02:09.426Z,7.40
2023-03-02T18:05:00.265Z,7.40
2023-03-02T18:07:51.919Z,7.30
2023-03-02T18:10:41.340Z,7.20
2023-03-02T18:13:30.862Z,7.20
2023-03-02T18:16:20.267Z,7.10
2023-03-02T18:19:10.395Z,7.00
2023-03-02T18:22:01.021Z,7.00
2023-03-02T18:24:52.002Z,6.90
2023-03-02T18:27:41.521Z,6.80
2023-03-02T18:30:31.100Z,6.70
2023-03-02T18:33:20.512Z,6.70
2023-03-02T18:36:10.954Z,6.60
2023-03-02T18:39:02.385Z,6.60
2023-03-02T18:41:51.756Z,6.50
2023-03-02T18:44:41.134Z,6.50
2023-03-02T18:47:30.478Z,6.40
2023-03-02T18:50:22.300Z,6.40
2023-03-02T18:53:12.951Z,6.40
2023-03-02T18:56:03.749Z,6.30
2023-03-02T18:58:53.564Z,6.30
2023-03-02T19:01:45.126Z,6.20
2023-03-02T19:04:34.466Z,6.20
2023-03-02T19:07:23.790Z,6.10
2023-03-02T19:10:14.789Z,6.10
2023-03-02T19:13:06.529Z,6.00
2023-03-02T19:15:56.375Z,6.00
2023-03-02T19:18:45.715Z,5.90
2023-03-02T19:21:35.009Z,5.90
2023-03-02T19:24:24.350Z,5.80
2023-03-02T19:27:14.409Z,5.80
2023-03-02T19:30:05.663Z,5.70
2023-03-02T19:32:55.542Z,5.60
2023-03-02T19:35:45.503Z,5.60
2023-03-02T19:38:37.870Z,5.60
2023-03-02T19:41:27.318Z,5.50
2023-03-02T19:44:17.401Z,5.50
2023-03-02T19:47:08.641Z,5.40
2023-03-02T19:49:58.303Z,5.30
2023-03-02T19:52:47.918Z,5.30
2023-03-02T19:55:37.310Z,5.30
2023-03-02T19:58:28.289Z,5.20
2023-03-02T20:01:21.601Z,5.20
2023-03-02T20:04:12.703Z,5.10
2023-03-02T20:07:03.136Z,5.10
2023-03-02T20:09:52.544Z,5.10
2023-03-02T20:12:42.737Z,5.00
2023-03-02T20:15:38.030Z,5.00
2023-03-02T20:18:28.114Z,5.00
2023-03-02T20:21:19.874Z,4.90
2023-03-02T20:24:10.103Z,4.90
2023-03-02T20:26:59.701Z,4.90
2023-03-02T20:29:52.299Z,4.90
2023-03-02T20:32:41.809Z,4.90
2023-03-02T20:35:36.395Z,4.80
2023-03-02T20:38:31.325Z,4.80
2023-03-02T20:41:20.971Z,4.70
2023-03-02T20:44:14.500Z,4.70
2023-03-02T20:47:08.255Z,4.70
2023-03-02T20:49:59.933Z,4.60
2023-03-02T20:52:49.284Z,4.60
2023-03-02T20:55:40.608Z,4.60
2023-03-02T20:58:30.167Z,4.60
2023-03-02T21:01:23.575Z,4.50
2023-03-02T21:04:13.046Z,4.50
2023-03-02T21:07:02.555Z,4.40
2023-03-02T21:09:52.030Z,4.40
2023-03-02T21:12:43.088Z,4.30
2023-03-02T21:15:34.181Z,4.30
2023-03-02T21:18:23.495Z,4.30
2023-03-02T21:21:12.859Z,4.20
2023-03-02T21:24:02.528Z,4.20
2023-03-02T21:26:54.252Z,4.20
2023-03-02T21:29:45.246Z,4.20
2023-03-02T21:32:34.752Z,4.10
2023-03-02T21:35:24.510Z,4.10
2023-03-02T21:38:14.740Z,4.10
2023-03-02T21:41:04.160Z,4.00
2023-03-02T21:43:53.718Z,4.00
2023-03-02T21:46:44.526Z,4.00
2023-03-02T21:49:34.030Z,4.00
2023-03-02T21:52:27.232Z,3.90
2023-03-02T21:55:17.012Z,3.90
2023-03-02T21:58:06.474Z,3.90
2023-03-02T22:00:55.910Z,3.80
2023-03-02T22:03:46.851Z,3.80
2023-03-02T22:06:37.627Z,3.80
2023-03-02T22:09:26.927Z,3.70
2023-03-02T22:12:17.258Z,3.70
2023-03-02T22:15:15.295Z,3.70
2023-03-02T22:18:10.726Z,3.70
2023-03-02T22:21:01.914Z,3.60
2023-03-02T22:23:51.755Z,3.60
2023-03-02T22:26:44.394Z,3.60
2023-03-02T22:29:41.239Z,3.60
2023-03-02T22:32:36.606Z,3.50
2023-03-02T22:35:28.635Z,3.50
2023-03-02T22:38:26.822Z,3.40
2023-03-02T22:41:18.915Z,3.40
2023-03-02T22:44:13.432Z,3.30
2023-03-02T22:47:03.279Z,3.30
2023-03-02T22:50:00.120Z,3.30
2023-03-02T22:52:50.007Z,3.30
2023-03-02T22:55:43.784Z,3.20
2023-03-02T22:58:44.938Z,3.20
2023-03-02T23:01:42.106Z,3.20
2023-03-02T23:04:37.215Z,3.30
2023-03-02T23:07:26.858Z,3.30
2023-03-02T23:10:23.053Z,3.40
2023-03-02T23:13:17.626Z,3.40
2023-03-02T23:16:16.916Z,3.40
2023-03-02T23:19:06.454Z,3.50
2023-03-02T23:21:56.733Z,3.50
2023-03-02T23:24:46.100Z,3.50
2023-03-02T23:27:35.450Z,3.50
2023-03-02T23:30:27.064Z,3.50
2023-03-02T23:33:16.346Z,3.40
2023-03-02T23:36:06.501Z,3.40
2023-03-02T23:38:55.836Z,3.40
2023-03-02T23:41:45.213Z,3.40
2023-03-02T23:44:35.172Z,3.40
2023-03-02T23:47:25.897Z,3.50
2023-03-02T23:50:15.767Z,3.50
2023-03-02T23:53:05.157Z,3.60
2023-03-02T23:55:56.098Z,3.60
2023-03-02T23:58:45.461Z,3.70
